createdAt,value
2019-04-20T00:01:28.705Z,3.93
2019-04-20T00:03:58.888Z,2.87
2019-04-20T00:06:31.665Z,3.87
2019-04-20T00:09:08.764Z,3.90
2019-04-20T00:11:47.078Z,4.53
2019-04-20T00:14:13.786Z,3.33
2019-04-20T00:16:37.845Z,3.20
2019-04-20T00:19:09.380Z,3.50
2019-04-20T00:21:52.679Z,4.47
2019-04-20T00:24:49.136Z,3.73
2019-04-20T00:27:40.541Z,3.90
2019-04-20T00:30:04.451Z,3.27
2019-04-20T00:32:40.046Z,2.83
2019-04-20T00:34:53.683Z,2.87
2019-04-20T00:37:23.874Z,2.93
2019-04-20T00:39:56.007Z,3.37
2019-04-20T00:42:34.603Z,2.87
2019-04-20T00:45:07.974Z,2.90
2019-04-20T00:47:39.107Z,3.53
2019-04-20T00:50:22.269Z,3.60
2019-04-20T00:52:52.667Z,3.40
2019-04-20T00:55:06.396Z,2.27
2019-04-20T00:57:46.704Z,3.40
2019-04-20T01:00:27.339Z,2.83
2019-04-20T01:02:52.199Z,3.10
2019-04-20T01:06:02.264Z,3.77
2019-04-20T01:08:34.039Z,2.93
2019-04-20T01:11:04.268Z,3.93
2019-04-20T01:13:42.141Z,2.50
2019-04-20T01:16:20.822Z,2.83
2019-04-20T01:18:37.352Z,3.23
2019-04-20T01:21:14.875Z,2.77
2019-04-20T01:23:48.007Z,3.37
2019-04-20T01:26:16.394Z,2.73
2019-04-20T01:28:58.525Z,3.23
2019-04-20T01:31:26.717Z,3.00
2019-04-20T01:33:57.726Z,2.83
2019-04-20T01:36:37.107Z,2.57
2019-04-20T01:39:06.709Z,2.90
2019-04-20T01:41:22.426Z,2.70
2019-04-20T01:43:52.351Z,2.70
2019-04-20T01:46:26.340Z,2.97
2019-04-20T01:48:54.756Z,2.90
2019-04-20T01:51:28.575Z,2.83
2019-04-20T01:54:16.034Z,2.57
2019-04-20T01:56:47.262Z,3.50
2019-04-20T01:59:34.830Z,2.63
2019-04-20T02:02:16.614Z,3.53
2019-04-20T02:04:51.869Z,3.33
2019-04-20T02:07:28.484Z,3.37
2019-04-20T02:09:58.264Z,2.90
2019-04-20T02:12:28.674Z,2.63
2019-04-20T02:14:59.455Z,3.00
2019-04-20T02:17:36.692Z,3.13
2019-04-20T02:20:15.685Z,4.20
2019-04-20T02:22:50.631Z,3.27
2019-04-20T02:25:01.715Z,3.10
2019-04-20T02:27:40.618Z,3.07
2019-04-20T02:30:44.933Z,3.27
2019-04-20T02:33:16.756Z,3.93
2019-04-20T02:36:13.823Z,4.03
2019-04-20T02:39:21.906Z,2.97
2019-04-20T02:46:45.312Z,3.97
2019-04-20T02:49:19.792Z,4.07
2019-04-20T02:54:16.566Z,4.43
2019-04-20T02:56:47.650Z,3.27
2019-04-20T02:59:47.567Z,3.37
2019-04-20T03:01:36.877Z,2.57
2019-04-20T03:03:54.545Z,3.07
2019-04-20T03:06:33.060Z,3.07
2019-04-20T03:09:17.256Z,2.70
2019-04-20T03:11:54.024Z,3.00
2019-04-20T03:14:14.932Z,4.60
2019-04-20T03:16:48.568Z,3.27
2019-04-20T03:19:17.086Z,3.23
2019-04-20T03:21:56.949Z,2.93
2019-04-20T03:24:35.726Z,3.50
2019-04-20T03:26:57.012Z,3.30
2019-04-20T03:29:46.926Z,2.77
2019-04-20T03:37:36.971Z,3.03
2019-04-20T03:39:56.726Z,2.73
2019-04-20T03:42:18.142Z,3.00
2019-04-20T03:44:52.933Z,2.80
2019-04-20T03:47:30.363Z,3.13
2019-04-20T03:50:10.728Z,2.87
2019-04-20T03:52:57.957Z,3.57
2019-04-20T03:55:30.297Z,2.93
2019-04-20T03:58:24.155Z,3.13
2019-04-20T04:01:34.507Z,2.70
2019-04-20T04:03:58.756Z,3.10
2019-04-20T04:06:21.496Z,4.10
2019-04-20T04:08:55.510Z,3.57
2019-04-20T04:11:26.197Z,3.90
2019-04-20T04:13:43.825Z,4.50
2019-04-20T04:16:18.152Z,3.97
2019-04-20T04:18:49.712Z,3.50
2019-04-20T04:21:27.478Z,4.73
2019-04-20T04:24:05.854Z,4.13
2019-04-20T04:26:35.278Z,3.90
2019-04-20T04:29:13.706Z,3.50
2019-04-20T04:31:50.801Z,3.90
2019-04-20T04:34:12.565Z,4.20
2019-04-20T04:36:50.127Z,3.67
2019-04-20T04:39:21.215Z,4.07
2019-04-20T04:42:01.572Z,3.80
2019-04-20T04:44:20.213Z,3.80
2019-04-20T04:46:42.628Z,3.73
2019-04-20T04:49:18.036Z,4.13
2019-04-20T04:51:46.784Z,3.60
2019-04-20T04:54:21.998Z,3.57
2019-04-20T04:56:41.927Z,3.13
2019-04-20T04:59:12.785Z,3.70
2019-04-20T05:01:47.775Z,3.63
2019-04-20T05:04:33.937Z,4.17
2019-04-20T05:06:59.543Z,3.33
2019-04-20T05:09:18.805Z,3.63
2019-04-20T05:11:56.133Z,3.70
2019-04-20T05:14:26.212Z,3.77
2019-04-20T05:17:07.742Z,3.13
2019-04-20T05:19:47.470Z,3.07
2019-04-20T05:22:20.559Z,3.40
2019-04-20T05:25:04.637Z,3.40
2019-04-20T05:27:47.819Z,4.23
2019-04-20T05:30:01.271Z,3.17
2019-04-20T05:32:42.816Z,3.43
2019-04-20T05:35:27.011Z,2.73
2019-04-20T05:38:02.559Z,3.97
2019-04-20T05:40:27.499Z,4.03
2019-04-20T05:43:01.889Z,3.43
2019-04-20T05:45:29.987Z,3.10
2019-04-20T05:48:02.529Z,3.87
2019-04-20T05:50:37.722Z,4.00
2019-04-20T05:53:14.855Z,3.27
2019-04-20T05:55:43.141Z,3.90
2019-04-20T05:58:08.816Z,3.23
2019-04-20T06:00:55.417Z,3.53
2019-04-20T06:03:16.451Z,3.10
2019-04-20T06:05:58.262Z,2.80
2019-04-20T06:08:34.609Z,3.20
2019-04-20T06:10:56.467Z,3.87
2019-04-20T06:13:38.093Z,3.43
2019-04-20T06:16:29.807Z,2.53
2019-04-20T06:19:18.352Z,3.23
2019-04-20T06:21:54.340Z,3.10
2019-04-20T06:24:26.549Z,3.27
2019-04-20T06:29:23.697Z,3.50
2019-04-20T06:31:57.986Z,3.10
2019-04-20T06:34:46.573Z,3.10
2019-04-20T06:37:06.828Z,2.87
2019-04-20T06:42:18.014Z,2.93
2019-04-20T06:47:17.617Z,3.73
2019-04-20T06:49:37.916Z,3.30
2019-04-20T06:52:45.395Z,3.20
2019-04-20T06:55:28.935Z,3.27
2019-04-20T07:00:15.361Z,3.57
2019-04-20T07:02:48.151Z,2.50
2019-04-20T07:05:19.007Z,2.53
2019-04-20T07:07:54.626Z,3.40
2019-04-20T07:10:25.300Z,2.63
2019-04-20T07:12:49.541Z,2.50
2019-04-20T07:15:26.974Z,2.63
2019-04-20T07:18:06.476Z,2.40
2019-04-20T07:20:55.600Z,2.93
2019-04-20T07:25:55.637Z,3.07
2019-04-20T07:28:29.148Z,3.13
2019-04-20T07:30:56.896Z,3.60
2019-04-20T07:33:29.736Z,3.50
2019-04-20T07:35:57.444Z,3.83
2019-04-20T07:38:36.853Z,3.03
2019-04-20T07:41:01.298Z,3.73
2019-04-20T07:43:29.987Z,2.53
2019-04-20T07:46:10.538Z,2.73
2019-04-20T07:48:39.605Z,3.30
2019-04-20T07:50:58.309Z,3.37
2019-04-20T07:53:35.283Z,3.15
2019-04-20T07:56:13.346Z,2.92
2019-04-20T07:58:33.885Z,3.05
2019-04-20T08:01:30.238Z,3.75
2019-04-20T08:04:05.989Z,3.15
2019-04-20T08:06:30.271Z,2.62
2019-04-20T08:09:07.153Z,3.98
2019-04-20T08:11:52.745Z,4.05
2019-04-20T08:14:19.316Z,2.77
2019-04-20T08:16:58.653Z,3.77
2019-04-20T08:19:17.467Z,4.03
2019-04-20T08:22:13.541Z,3.00
2019-04-20T08:24:18.432Z,3.55
2019-04-20T08:26:41.547Z,3.72
2019-04-20T08:29:28.205Z,3.98
2019-04-20T08:32:26.900Z,3.65
2019-04-20T08:35:02.065Z,3.98
2019-04-20T08:37:26.833Z,4.03
2019-04-20T08:40:08.344Z,3.55
2019-04-20T08:42:40.412Z,4.05
2019-04-20T08:54:26.153Z,3.87
2019-04-20T08:56:47.972Z,3.90
2019-04-20T08:59:11.904Z,3.55
2019-04-20T09:01:42.642Z,4.08
2019-04-20T09:04:18.632Z,3.42
2019-04-20T09:06:57.194Z,3.37
2019-04-20T09:09:44.541Z,4.00
2019-04-20T09:12:06.139Z,4.17
2019-04-20T09:14:23.543Z,5.25
2019-04-20T09:17:07.069Z,4.00
2019-04-20T09:19:42.143Z,4.05
2019-04-20T09:22:28.079Z,4.87
2019-04-20T09:25:19.274Z,4.50
2019-04-20T09:27:33.010Z,3.85
2019-04-20T09:30:13.734Z,3.65
2019-04-20T09:32:45.316Z,3.70
2019-04-20T09:35:26.600Z,4.33
2019-04-20T09:37:59.960Z,3.83
2019-04-20T09:40:35.016Z,4.58
2019-04-20T09:43:00.215Z,3.60
2019-04-20T09:45:42.986Z,3.67
2019-04-20T09:48:15.710Z,4.70
2019-04-20T09:51:02.331Z,4.87
2019-04-20T09:53:24.717Z,5.78
2019-04-20T09:56:04.689Z,4.95
2019-04-20T09:58:27.185Z,4.10
2019-04-20T10:01:01.758Z,3.90
2019-04-20T10:03:18.746Z,4.28
2019-04-20T10:05:49.647Z,4.60
2019-04-20T10:08:19.724Z,3.80
2019-04-20T10:11:53.198Z,4.70
2019-04-20T10:14:26.910Z,5.20
2019-04-20T10:16:57.871Z,3.83
2019-04-20T10:19:32.438Z,3.65
2019-04-20T10:22:00.397Z,4.17
2019-04-20T10:24:32.795Z,3.80
2019-04-20T10:27:03.013Z,4.03
2019-04-20T10:29:33.556Z,4.90
2019-04-20T10:32:10.143Z,4.67
2019-04-20T10:34:36.577Z,5.08
2019-04-20T10:37:13.525Z,3.98
2019-04-20T10:39:44.681Z,5.05
2019-04-20T10:42:16.328Z,3.50
2019-04-20T10:44:48.039Z,3.83
2019-04-20T10:47:18.971Z,3.72
2019-04-20T10:49:49.277Z,3.50
2019-04-20T10:52:20.005Z,5.53
2019-04-20T10:54:50.365Z,4.80
2019-04-20T10:57:21.577Z,4.30
2019-04-20T10:59:51.921Z,5.08
2019-04-20T11:02:25.909Z,4.15
2019-04-20T11:04:56.989Z,3.98
2019-04-20T11:07:26.754Z,4.08
2019-04-20T11:10:10.632Z,3.50
2019-04-20T11:12:28.414Z,4.40
2019-04-20T11:14:58.766Z,4.72
2019-04-20T11:17:29.992Z,4.72
2019-04-20T11:19:59.649Z,4.55
2019-04-20T11:22:30.504Z,4.35
2019-04-20T11:25:00.341Z,4.03
2019-04-20T11:27:30.085Z,3.95
2019-04-20T11:30:00.198Z,4.03
2019-04-20T11:32:30.486Z,4.30
2019-04-20T11:35:02.223Z,3.27
2019-04-20T11:37:33.083Z,3.47
2019-04-20T11:40:03.221Z,3.27
2019-04-20T11:42:32.954Z,3.95
2019-04-20T11:45:02.802Z,3.90
2019-04-20T11:47:33.667Z,3.87
2019-04-20T11:50:03.749Z,4.30
2019-04-20T11:52:38.777Z,3.72
2019-04-20T11:55:06.310Z,3.77
2019-04-20T11:57:37.524Z,3.60
2019-04-20T12:00:08.756Z,4.85
2019-04-20T12:03:12.028Z,3.90
2019-04-20T12:05:40.555Z,2.80
2019-04-20T12:08:07.026Z,4.40
2019-04-20T12:10:37.239Z,4.28
2019-04-20T12:13:07.907Z,4.35
2019-04-20T12:15:38.902Z,3.58
2019-04-20T12:18:09.511Z,3.55
2019-04-20T12:20:40.869Z,4.60
2019-04-20T12:23:10.892Z,4.75
2019-04-20T12:25:42.452Z,5.20
2019-04-20T12:28:12.109Z,4.08
2019-04-20T12:30:42.023Z,3.00
2019-04-20T12:33:11.608Z,3.58
2019-04-20T12:35:42.551Z,3.22
2019-04-20T12:38:12.803Z,4.25
2019-04-20T12:40:42.388Z,3.25
2019-04-20T12:43:13.194Z,4.10
2019-04-20T12:45:44.123Z,4.10
2019-04-20T12:48:13.989Z,3.02
2019-04-20T12:50:45.635Z,4.10
2019-04-20T12:53:15.298Z,4.62
2019-04-20T12:55:46.455Z,2.85
2019-04-20T12:58:16.764Z,3.02
2019-04-20T13:00:49.779Z,4.50
2019-04-20T13:03:19.591Z,4.50
2019-04-20T13:05:50.100Z,3.52
2019-04-20T13:08:29.557Z,3.20
2019-04-20T13:10:58.416Z,4.30
2019-04-20T13:13:54.460Z,3.30
2019-04-20T13:16:30.247Z,3.77
2019-04-20T13:19:03.525Z,3.02
2019-04-20T13:21:34.756Z,3.77
2019-04-20T13:24:05.108Z,4.42
2019-04-20T13:26:35.246Z,2.75
2019-04-20T13:29:10.974Z,4.10
2019-04-20T13:31:42.066Z,2.90
2019-04-20T13:34:13.252Z,3.37
2019-04-20T13:36:44.098Z,3.85
2019-04-20T13:39:14.314Z,3.40
2019-04-20T13:41:58.776Z,3.60
2019-04-20T13:44:17.874Z,4.53
2019-04-20T13:46:49.176Z,5.08
2019-04-20T13:49:18.991Z,4.92
2019-04-20T13:51:59.892Z,4.80
2019-04-20T13:54:29.966Z,4.42
2019-04-20T13:57:03.916Z,4.62
2019-04-20T13:59:53.038Z,4.67
2019-04-20T14:02:51.035Z,3.55
2019-04-20T14:05:31.339Z,3.87
2019-04-20T14:08:05.288Z,3.20
2019-04-20T14:10:35.469Z,4.10
2019-04-20T14:13:11.857Z,4.20
2019-04-20T14:15:37.457Z,4.75
2019-04-20T14:18:07.161Z,3.60
2019-04-20T14:20:38.082Z,3.60
2019-04-20T14:23:09.367Z,3.35
2019-04-20T14:25:39.326Z,2.87
2019-04-20T14:28:09.332Z,4.00
2019-04-20T14:30:40.189Z,3.33
2019-04-20T14:33:10.622Z,4.00
2019-04-20T14:35:40.953Z,4.42
2019-04-20T14:38:12.919Z,3.83
2019-04-20T14:40:42.177Z,4.80
2019-04-20T14:43:13.215Z,3.72
2019-04-20T14:45:43.402Z,5.00
2019-04-20T14:48:13.164Z,4.25
2019-04-20T14:50:45.665Z,4.17
2019-04-20T14:53:54.148Z,4.58
2019-04-20T14:56:25.265Z,3.45
2019-04-20T14:59:02.186Z,3.17
2019-04-20T15:01:34.991Z,4.00
2019-04-20T15:04:11.555Z,3.72
2019-04-20T15:06:39.698Z,3.87
2019-04-20T15:09:10.745Z,3.50
2019-04-20T15:11:41.696Z,3.40
2019-04-20T15:14:11.787Z,3.33
2019-04-20T15:16:44.586Z,4.35
2019-04-20T15:19:31.707Z,4.20
2019-04-20T15:22:03.292Z,3.58
2019-04-20T15:24:33.552Z,3.35
2019-04-20T15:27:04.660Z,3.60
2019-04-20T15:29:34.389Z,3.98
2019-04-20T15:32:13.198Z,4.42
2019-04-20T15:34:52.937Z,3.77
2019-04-20T15:37:23.422Z,3.30
2019-04-20T15:39:53.305Z,2.98
2019-04-20T15:42:23.383Z,3.25
2019-04-20T15:44:53.502Z,3.60
2019-04-20T15:47:25.789Z,4.05
2019-04-20T15:49:56.069Z,3.55
2019-04-20T15:52:33.621Z,3.85
2019-04-20T15:54:57.219Z,2.77
2019-04-20T15:57:29.379Z,3.60
2019-04-20T15:59:58.587Z,3.20
2019-04-20T16:02:36.939Z,3.85
2019-04-20T16:05:30.366Z,3.00
2019-04-20T16:08:23.774Z,3.27
2019-04-20T16:10:55.303Z,2.98
2019-04-20T16:13:36.100Z,4.08
2019-04-20T16:16:01.569Z,3.90
2019-04-20T16:18:32.748Z,4.22
2019-04-20T16:21:09.227Z,3.40
2019-04-20T16:23:54.802Z,3.08
2019-04-20T16:26:53.682Z,2.90
2019-04-20T16:29:29.414Z,3.52
2019-04-20T16:32:00.477Z,3.87
2019-04-20T16:34:31.657Z,3.40
2019-04-20T16:37:02.196Z,3.35
2019-04-20T16:39:32.318Z,3.52
2019-04-20T16:42:20.298Z,3.52
2019-04-20T16:44:53.469Z,3.47
2019-04-20T16:47:24.054Z,2.85
2019-04-20T16:49:55.049Z,3.52
2019-04-20T16:52:25.148Z,3.02
2019-04-20T16:54:55.660Z,3.25
2019-04-20T16:57:25.617Z,3.92
2019-04-20T16:59:59.294Z,3.20
2019-04-20T17:02:29.857Z,2.55
2019-04-20T17:05:00.938Z,3.25
2019-04-20T17:07:37.298Z,3.50
2019-04-20T17:10:07.553Z,2.83
2019-04-20T17:12:39.917Z,3.45
2019-04-20T17:15:10.159Z,3.33
2019-04-20T17:17:40.446Z,3.50
2019-04-20T17:20:12.369Z,3.98
2019-04-20T17:22:44.390Z,3.47
2019-04-20T17:25:16.354Z,3.02
2019-04-20T17:28:05.217Z,4.28
2019-04-20T17:30:58.954Z,3.17
2019-04-20T17:33:45.580Z,3.45
2019-04-20T17:36:14.459Z,2.60
2019-04-20T17:38:44.510Z,2.85
2019-04-20T17:41:30.673Z,2.47
2019-04-20T17:44:04.181Z,3.22
2019-04-20T17:46:28.748Z,5.03
2019-04-20T17:49:00.698Z,6.65
2019-04-20T17:51:46.342Z,5.42
2019-04-20T17:54:08.461Z,3.90
2019-04-20T17:56:40.391Z,7.05
2019-04-20T17:59:12.487Z,8.50
2019-04-20T18:02:07.755Z,4.65
2019-04-20T18:04:53.781Z,5.30
2019-04-20T18:07:29.935Z,4.55
2019-04-20T18:09:58.893Z,5.65
2019-04-20T18:12:07.619Z,7.17
2019-04-20T18:14:51.766Z,5.72
2019-04-20T18:17:29.315Z,4.80
2019-04-20T18:19:58.740Z,4.65
2019-04-20T18:22:31.856Z,7.45
2019-04-20T18:25:22.405Z,4.17
2019-04-20T18:27:53.402Z,4.22
2019-04-20T18:30:24.118Z,4.42
2019-04-20T18:32:41.201Z,4.20
2019-04-20T18:35:22.640Z,6.40
2019-04-20T18:38:02.629Z,5.85
2019-04-20T18:40:36.135Z,4.73
2019-04-20T18:43:05.902Z,4.20
2019-04-20T18:45:52.861Z,4.50
2019-04-20T18:48:24.966Z,4.67
2019-04-20T18:50:41.770Z,4.63
2019-04-20T18:53:14.737Z,5.37
2019-04-20T18:55:46.829Z,4.67
2019-04-20T18:58:13.294Z,8.83
2019-04-20T19:00:49.063Z,4.80
2019-04-20T19:03:25.624Z,5.03
2019-04-20T19:05:47.589Z,5.17
2019-04-20T19:08:19.301Z,5.00
2019-04-20T19:10:57.833Z,4.70
2019-04-20T19:13:59.191Z,5.43
2019-04-20T19:16:54.120Z,4.87
2019-04-20T19:19:35.232Z,5.47
2019-04-20T19:21:56.790Z,5.37
2019-04-20T19:24:29.702Z,4.90
2019-04-20T19:27:03.513Z,5.13
2019-04-20T19:29:35.228Z,5.43
2019-04-20T19:32:20.568Z,4.50
2019-04-20T19:34:47.496Z,7.03
2019-04-20T19:37:17.175Z,4.80
2019-04-20T19:39:49.456Z,4.40
2019-04-20T19:42:19.829Z,4.93
2019-04-20T19:44:53.832Z,4.73
2019-04-20T19:47:33.518Z,4.30
2019-04-20T19:49:51.770Z,4.50
2019-04-20T19:52:36.509Z,5.10
2019-04-20T19:55:02.693Z,4.63
2019-04-20T19:57:39.849Z,4.43
2019-04-20T19:59:52.763Z,4.40
2019-04-20T20:02:19.798Z,4.80
2019-04-20T20:04:57.308Z,5.10
2019-04-20T20:07:31.036Z,5.07
2019-04-20T20:09:58.446Z,5.50
2019-04-20T20:12:27.307Z,5.20
2019-04-20T20:14:57.515Z,5.57
2019-04-20T20:17:48.418Z,5.33
2019-04-20T20:20:30.063Z,4.97
2019-04-20T20:22:37.835Z,5.03
2019-04-20T20:25:03.154Z,5.00
2019-04-20T20:27:46.924Z,5.63
2019-04-20T20:30:12.744Z,5.30
2019-04-20T20:32:59.245Z,5.70
2019-04-20T20:35:15.462Z,5.93
2019-04-20T20:37:47.468Z,5.20
2019-04-20T20:40:18.959Z,5.63
2019-04-20T20:42:56.322Z,5.83
2019-04-20T20:45:28.912Z,5.83
2019-04-20T20:48:09.522Z,5.43
2019-04-20T20:50:42.741Z,6.13
2019-04-20T20:53:08.646Z,5.87
2019-04-20T20:55:35.563Z,5.90
2019-04-20T20:58:06.525Z,6.23
2019-04-20T21:00:41.802Z,6.40
2019-04-20T21:03:05.481Z,5.90
2019-04-20T21:05:31.584Z,6.27
2019-04-20T21:08:01.700Z,5.93
2019-04-20T21:10:42.357Z,6.37
2019-04-20T21:13:10.914Z,6.47
2019-04-20T21:15:45.416Z,6.23
2019-04-20T21:18:34.868Z,6.20
2019-04-20T21:21:01.972Z,6.10
2019-04-20T21:23:29.272Z,6.83
2019-04-20T21:26:11.491Z,6.13
2019-04-20T21:28:42.015Z,6.57
2019-04-20T21:31:16.878Z,6.20
2019-04-20T21:33:44.867Z,6.83
2019-04-20T21:36:19.216Z,6.77
2019-04-20T21:38:46.899Z,6.90
2019-04-20T21:41:20.194Z,6.27
2019-04-20T21:43:49.866Z,6.70
2019-04-20T21:46:20.805Z,6.00
2019-04-20T21:49:01.713Z,7.00
2019-04-20T21:51:33.340Z,6.80
2019-04-20T21:53:56.930Z,6.77
2019-04-20T21:56:26.082Z,6.20
2019-04-20T21:59:00.705Z,6.87
2019-04-20T22:01:35.739Z,7.07
2019-04-20T22:04:00.472Z,7.27
2019-04-20T22:06:32.034Z,7.20
2019-04-20T22:09:10.697Z,7.23
2019-04-20T22:11:39.995Z,7.30
2019-04-20T22:14:17.306Z,8.00
2019-04-20T22:16:46.079Z,7.73
2019-04-20T22:19:29.874Z,8.03
2019-04-20T22:21:58.444Z,8.47
2019-04-20T22:24:33.069Z,9.00
2019-04-20T22:26:54.933Z,8.63
2019-04-20T22:29:18.596Z,7.43
2019-04-20T22:31:56.468Z,8.03
2019-04-20T22:34:23.777Z,7.87
2019-04-20T22:36:52.197Z,7.93
2019-04-20T22:39:32.218Z,8.20
2019-04-20T22:42:00.186Z,7.20
2019-04-20T22:44:29.122Z,7.17
2019-04-20T22:46:58.602Z,7.70
2019-04-20T22:49:44.245Z,8.27
2019-04-20T22:52:13.246Z,7.93
2019-04-20T22:54:46.635Z,8.10
2019-04-20T22:57:17.696Z,7.90
2019-04-20T22:59:46.118Z,7.03
2019-04-20T23:02:08.455Z,7.90
2019-04-20T23:04:40.707Z,7.67
2019-04-20T23:07:14.742Z,8.07
2019-04-20T23:09:50.807Z,7.97
2019-04-20T23:12:22.739Z,7.67
2019-04-20T23:14:50.535Z,8.00
2019-04-20T23:17:26.928Z,8.03
2019-04-20T23:19:56.143Z,8.43
2019-04-20T23:22:33.619Z,8.10
2019-04-20T23:24:55.294Z,8.23
2019-04-20T23:27:31.164Z,8.30
2019-04-20T23:29:58.370Z,9.77
2019-04-20T23:32:30.265Z,9.50
2019-04-20T23:35:05.853Z,8.83
2019-04-20T23:37:35.067Z,8.77
2019-04-20T23:40:08.143Z,9.83
2019-04-20T23:42:49.680Z,10.00
2019-04-20T23:45:47.348Z,9.43
2019-04-20T23:48:33.706Z,11.37
2019-04-20T23:51:17.109Z,10.63
2019-04-20T23:53:48.297Z,11.17
2019-04-20T23:56:05.883Z,10.67
2019-04-20T23:58:40.624Z,11.33
